Euskara    
Meteorología y climatología de Navarra
Datos de la estación - Meteo Navarra

Estación de Pamplona GN

Altitud 455 m.


Datos desde el 08/04/2021 hasta el 09/04/2021 en horario solar
Los datos son PROVISIONALES

Anterior Página 1 de 1 Siguiente Descargar: Formato para Excel 2000 o superior   Formato csv   Formato para OpenOffice Calc
Fecha Temperatura Humedad relativa Radiación global Insolación Precipitación Vel. viento 10 m Vel. viento 10 m Dir. viento 10 m
°C % W/m² s l/m² m/s km/h °
08/04/2021 0:00 4.1 61 0.0 0 0.0 2.1 7.5 105
08/04/2021 0:10 3.9 62 0.0 0 0.0 1.5 5.3 129
08/04/2021 0:20 4.1 61 0.0 0 0.0 1.8 6.3 104
08/04/2021 0:30 4.1 61 0.0 0 0.0 1.2 4.1 47
08/04/2021 0:40 3.7 63 0.0 0 0.0 1.3 4.6 54
08/04/2021 0:50 3.6 64 0.0 0 0.0 1.4 5.0 80
08/04/2021 1:00 3.6 65 0.0 0 0.0 1.2 4.1 81
08/04/2021 1:10 3.6 65 0.0 0 0.0 1.1 4.1 70
08/04/2021 1:20 3.4 66 0.0 0 0.0 1.0 3.7 81
08/04/2021 1:30 3.2 67 0.0 0 0.0 1.6 5.7 69
08/04/2021 1:40 2.8 68 0.0 0 0.0 1.4 5.1 60
08/04/2021 1:50 2.8 69 0.0 0 0.0 1.4 5.0 58
08/04/2021 2:00 3.1 68 0.0 0 0.0 0.9 3.3 89
08/04/2021 2:10 3.1 68 0.0 0 0.0 0.7 2.4 105
08/04/2021 2:20 3.3 68 0.0 0 0.0 1.0 3.5 88
08/04/2021 2:30 3.2 69 0.0 0 0.0 1.2 4.3 93
08/04/2021 2:40 3.0 70 0.0 0 0.0 1.7 6.0 68
08/04/2021 2:50 2.8 71 0.0 0 0.0 1.7 6.0 56
08/04/2021 3:00 2.8 72 0.0 0 0.0 1.3 4.6 66
08/04/2021 3:10 2.8 71 0.0 0 0.0 0.8 2.8 103
08/04/2021 3:20 2.9 71 0.0 0 0.0 0.2 0.8 168
08/04/2021 3:30 3.1 72 0.0 0 0.0 0.0 0.0 0
08/04/2021 3:40 3.1 72 0.0 0 0.0 1.2 4.3 343
08/04/2021 3:50 2.9 72 0.0 0 0.0 1.1 3.9 359
08/04/2021 4:00 3.1 72 0.0 0 0.0 0.7 2.6 34
08/04/2021 4:10 3.0 72 0.0 0 0.0 0.3 1.2 83
08/04/2021 4:20 3.3 72 0.0 0 0.0 0.8 2.8 75
08/04/2021 4:30 3.2 73 0.0 0 0.0 0.4 1.3 96
08/04/2021 4:40 3.2 73 0.0 0 0.0 0.2 0.9 59
08/04/2021 4:50 3.2 74 0.0 0 0.0 0.0 0.0 0
08/04/2021 5:00 3.1 74 0.0 0 0.0 0.1 0.5 11
08/04/2021 5:10 3.0 75 0.0 0 0.0 0.4 1.3 87
08/04/2021 5:20 2.8 77 0.0 0 0.0 0.9 3.3 311
08/04/2021 5:30 2.8 78 0.0 0 0.0 0.4 1.4 65
08/04/2021 5:40 2.9 80 0.0 0 0.0 0.7 2.3 303
08/04/2021 5:50 3.2 82 5.1 0 0.0 0.6 2.2 291
08/04/2021 6:00 3.4 81 30.1 290 0.0 0.7 2.5 310
08/04/2021 6:10 3.7 81 52.2 600 0.0 0.6 2.2 316
08/04/2021 6:20 4.0 79 59.4 354 0.0 0.4 1.3 39
08/04/2021 6:30 3.9 79 80.1 414 0.0 0.7 2.3 39
08/04/2021 6:40 3.9 77 63.2 0 0.0 0.8 2.8 68
08/04/2021 6:50 3.9 78 67.5 0 0.0 0.4 1.4 48
08/04/2021 7:00 4.0 78 101.1 82 0.0 0.2 0.7 49
08/04/2021 7:10 4.5 78 118.6 38 0.0 0.4 1.3 51
08/04/2021 7:20 4.9 78 135.6 2 0.0 0.2 0.6 50
08/04/2021 7:30 5.3 78 133.1 0 0.0 0.2 0.8 6
08/04/2021 7:40 5.7 78 123.0 0 0.0 0.3 1.2 20
08/04/2021 7:50 5.9 77 134.6 0 0.0 0.5 1.9 12
08/04/2021 8:00 6.0 75 148.6 0 0.0 0.3 0.9 352
08/04/2021 8:10 6.5 74 159.7 0 0.0 0.2 0.6 2
08/04/2021 8:20 6.9 72 162.0 0 0.0 0.6 2.2 292
08/04/2021 8:30 7.1 70 171.3 0 0.0 1.2 4.4 300
08/04/2021 8:40 7.4 69 169.1 0 0.0 1.2 4.3 292
08/04/2021 8:50 7.6 68 178.5 0 0.0 1.4 5.2 297
08/04/2021 9:00 7.9 67 166.1 0 0.0 1.6 5.7 272
08/04/2021 9:10 8.3 66 187.8 0 0.0 1.1 3.9 269
08/04/2021 9:20 8.7 65 232.0 0 0.0 0.9 3.1 281
08/04/2021 9:30 9.1 64 267.0 0 0.0 0.7 2.4 217
08/04/2021 9:40 9.7 62 289.3 0 0.0 0.8 3.0 248
08/04/2021 9:50 9.9 61 344.1 58 0.0 1.1 3.9 238
08/04/2021 10:00 10.4 60 397.4 456 0.0 0.7 2.6 199
08/04/2021 10:10 10.9 59 354.4 74 0.0 0.5 1.9 141
08/04/2021 10:20 11.0 59 326.4 0 0.0 0.7 2.5 220
08/04/2021 10:30 11.4 58 341.3 0 0.0 0.8 2.7 221
08/04/2021 10:40 11.7 57 340.8 0 0.0 1.8 6.5 170
08/04/2021 10:50 11.8 57 379.5 0 0.0 1.7 6.2 195
08/04/2021 11:00 12.2 56 398.4 68 0.0 1.7 6.2 216
08/04/2021 11:10 12.6 56 550.8 450 0.0 1.5 5.4 223
08/04/2021 11:20 13.0 54 524.4 600 0.0 1.9 6.7 221
08/04/2021 11:30 13.7 53 686.9 600 0.0 1.6 5.6 178
08/04/2021 11:40 13.7 52 744.3 600 0.0 2.2 7.8 188
08/04/2021 11:50 14.0 52 630.6 580 0.0 2.5 9.0 195
08/04/2021 12:00 14.0 52 769.2 578 0.0 2.2 7.8 217
08/04/2021 12:10 14.5 51 755.6 600 0.0 1.9 6.9 196
08/04/2021 12:20 14.8 50 806.0 600 0.0 1.7 6.0 181
08/04/2021 12:30 15.0 50 683.4 596 0.0 1.4 5.1 187
08/04/2021 12:40 14.9 50 706.4 578 0.0 1.7 6.2 164
08/04/2021 12:50 15.4 50 861.0 590 0.0 1.3 4.6 98
08/04/2021 13:00 15.3 49 786.3 436 0.0 1.5 5.3 165
08/04/2021 13:10 15.9 49 911.0 600 0.0 1.7 5.9 98
08/04/2021 13:20 16.3 47 859.0 600 0.0 0.9 3.4 218
08/04/2021 13:30 16.6 46 896.0 600 0.0 1.9 6.9 204
08/04/2021 13:40 16.7 46 643.1 600 0.0 2.0 7.1 192
08/04/2021 13:50 16.4 47 487.1 578 0.0 1.6 5.9 198
08/04/2021 14:00 16.6 47 592.3 600 0.0 1.4 5.0 197
08/04/2021 14:10 16.8 45 541.6 600 0.0 2.0 7.1 197
08/04/2021 14:20 16.4 46 483.2 600 0.0 1.4 5.0 159
08/04/2021 14:30 16.7 46 453.8 600 0.0 1.8 6.3 216
08/04/2021 14:40 16.7 46 399.5 600 0.0 1.1 4.0 169
08/04/2021 14:50 17.0 46 561.9 600 0.0 1.3 4.7 194
08/04/2021 15:00 17.7 45 605.3 600 0.0 1.3 4.6 227
08/04/2021 15:10 17.4 45 488.7 600 0.0 2.2 7.9 226
08/04/2021 15:20 17.6 45 553.0 600 0.0 1.7 6.0 229
08/04/2021 15:30 17.6 44 640.1 600 0.0 1.2 4.4 180
08/04/2021 15:40 17.9 44 594.7 600 0.0 1.3 4.8 203
08/04/2021 15:50 18.2 43 515.6 600 0.0 2.5 9.1 243
08/04/2021 16:00 18.1 43 470.3 600 0.0 1.9 6.7 243
08/04/2021 16:10 18.1 43 442.3 600 0.0 0.6 2.3 216
08/04/2021 16:20 18.2 43 377.1 600 0.0 0.7 2.6 204
08/04/2021 16:30 18.5 42 340.4 600 0.0 1.5 5.5 240
08/04/2021 16:40 18.2 42 264.7 446 0.0 1.8 6.5 234
08/04/2021 16:50 18.2 42 330.2 600 0.0 1.8 6.3 232
08/04/2021 17:00 18.2 42 293.8 600 0.0 2.3 8.1 233
08/04/2021 17:10 18.1 42 251.5 600 0.0 2.2 7.8 228
08/04/2021 17:20 18.0 42 165.4 380 0.0 2.2 7.7 208
08/04/2021 17:30 17.7 42 74.3 60 0.0 2.6 9.3 225
08/04/2021 17:40 17.3 44 69.4 10 0.0 2.1 7.5 218
08/04/2021 17:50 17.2 45 91.7 464 0.0 2.2 7.8 227
08/04/2021 18:00 17.1 46 62.1 140 0.0 2.3 8.2 222
08/04/2021 18:10 16.8 47 37.8 0 0.0 2.4 8.5 233
08/04/2021 18:20 16.6 48 16.7 0 0.0 1.9 6.8 229
08/04/2021 18:30 16.4 49 0.0 0 0.0 1.7 6.2 236
08/04/2021 18:40 16.2 50 0.0 0 0.0 1.9 6.7 228
08/04/2021 18:50 16.0 51 0.0 0 0.0 1.5 5.4 228
08/04/2021 19:00 15.8 51 0.0 0 0.0 1.5 5.3 225
08/04/2021 19:10 15.7 52 0.0 0 0.0 1.5 5.3 209
08/04/2021 19:20 15.6 52 0.0 0 0.0 1.5 5.4 210
08/04/2021 19:30 15.6 52 0.0 0 0.0 1.3 4.6 199
08/04/2021 19:40 15.4 53 0.0 0 0.0 0.7 2.6 100
08/04/2021 19:50 14.8 56 0.0 0 0.0 1.3 4.6 109
08/04/2021 20:00 14.6 57 0.0 0 0.0 1.5 5.4 138
08/04/2021 20:10 14.7 56 0.0 0 0.0 1.7 6.0 178
08/04/2021 20:20 14.8 56 0.0 0 0.0 0.4 1.6 179
08/04/2021 20:30 14.6 57 0.0 0 0.0 0.7 2.6 60
08/04/2021 20:40 14.1 60 0.0 0 0.0 1.0 3.7 88
08/04/2021 20:50 14.0 60 0.0 0 0.0 0.3 0.9 78
08/04/2021 21:00 14.0 61 0.0 0 0.0 0.8 2.8 77
08/04/2021 21:10 13.8 61 0.0 0 0.0 0.5 1.7 105
08/04/2021 21:20 13.7 61 0.0 0 0.0 0.0 0.1 85
08/04/2021 21:30 13.4 62 0.0 0 0.0 0.2 0.6 36
08/04/2021 21:40 13.3 63 0.0 0 0.0 0.0 0.0 0
08/04/2021 21:50 13.2 62 0.0 0 0.0 0.3 1.0 190
08/04/2021 22:00 13.0 63 0.0 0 0.0 0.1 0.4 168
08/04/2021 22:10 13.3 60 0.0 0 0.0 1.9 6.9 235
08/04/2021 22:20 13.7 57 0.0 0 0.0 1.5 5.2 230
08/04/2021 22:30 13.8 57 0.0 0 0.0 2.1 7.5 226
08/04/2021 22:40 14.0 56 0.0 0 0.0 2.4 8.6 223
08/04/2021 22:50 13.9 57 0.0 0 0.0 2.5 8.9 252
08/04/2021 23:00 13.5 59 0.0 0 0.0 2.7 9.8 247
08/04/2021 23:10 13.0 61 0.0 0 0.0 2.6 9.2 240
08/04/2021 23:20 12.9 62 0.0 0 0.0 1.3 4.7 215
08/04/2021 23:30 12.4 64 0.0 0 0.0 1.4 4.9 355
08/04/2021 23:40 12.1 65 0.0 0 0.0 1.6 5.8 305
08/04/2021 23:50 12.2 65 0.0 0 0.0 2.7 9.6 292
Anterior Página 1 de 1 Siguiente

NOTA: Tipo de datos según el color:
   - Valores diarios o 10 minutos correctos
   - Valores diarios calculados a partir de un número de datos 10 minutos menor que 144 y mayor que 120, o de un número de datos semihorarios menor que 48 y mayor que 40 (caso de las estaciones de INTIA Y Ministerio)
   - Valores diez minutos estimados


Contacto        Enlaces        Aviso legal